sensor_id;sensor_type;location;lat;lon;timestamp;temperature;humidity
10247;DHT22;5168;47.854;7.944;2023-02-01T00:13:54;-0.60;99.90
10247;DHT22;5168;47.854;7.944;2023-02-01T00:16:22;-0.60;99.90
10247;DHT22;5168;47.854;7.944;2023-02-01T00:18:51;-0.40;99.90
10247;DHT22;5168;47.854;7.944;2023-02-01T00:21:19;-0.50;99.90
10247;DHT22;5168;47.854;7.944;2023-02-01T00:26:15;-0.50;99.90
10247;DHT22;5168;47.854;7.944;2023-02-01T00:36:07;-0.60;99.90
10247;DHT22;5168;47.854;7.944;2023-02-01T00:38:34;-0.70;99.90
10247;DHT22;5168;47.854;7.944;2023-02-01T00:41:09;-0.50;99.90
10247;DHT22;5168;47.854;7.944;2023-02-01T00:46:01;-0.30;99.90
10247;DHT22;5168;47.854;7.944;2023-02-01T00:48:27;-0.40;99.90
10247;DHT22;5168;47.854;7.944;2023-02-01T00:50:53;-0.50;99.90
10247;DHT22;5168;47.854;7.944;2023-02-01T00:53:19;-0.50;99.90
10247;DHT22;5168;47.854;7.944;2023-02-01T00:55:45;-0.60;99.90
10247;DHT22;5168;47.854;7.944;2023-02-01T00:58:11;-0.70;99.90
10247;DHT22;5168;47.854;7.944;2023-02-01T01:00:37;-0.70;99.90
10247;DHT22;5168;47.854;7.944;2023-02-01T01:05:45;-0.40;99.90
10247;DHT22;5168;47.854;7.944;2023-02-01T01:08:11;-0.60;99.90
10247;DHT22;5168;47.854;7.944;2023-02-01T01:13:03;-0.80;99.90
10247;DHT22;5168;47.854;7.944;2023-02-01T01:17:54;-0.80;99.90
10247;DHT22;5168;47.854;7.944;2023-02-01T01:20:20;-1.00;99.90
10247;DHT22;5168;47.854;7.944;2023-02-01T01:22:47;-1.00;99.90
10247;DHT22;5168;47.854;7.944;2023-02-01T01:25:13;-0.40;99.90
10247;DHT22;5168;47.854;7.944;2023-02-01T01:27:39;-0.50;99.90
10247;DHT22;5168;47.854;7.944;2023-02-01T01:30:05;-0.80;99.90
10247;DHT22;5168;47.854;7.944;2023-02-01T01:32:31;-0.80;99.90
10247;DHT22;5168;47.854;7.944;2023-02-01T01:34:57;-0.90;99.90
10247;DHT22;5168;47.854;7.944;2023-02-01T01:45:04;-0.80;99.90
10247;DHT22;5168;47.854;7.944;2023-02-01T01:47:37;-0.80;99.90
10247;DHT22;5168;47.854;7.944;2023-02-01T01:50:07;-0.70;99.90
10247;DHT22;5168;47.854;7.944;2023-02-01T01:52:34;-0.90;99.90
10247;DHT22;5168;47.854;7.944;2023-02-01T01:55:00;-0.50;99.90
10247;DHT22;5168;47.854;7.944;2023-02-01T01:57:33;-0.60;99.90
10247;DHT22;5168;47.854;7.944;2023-02-01T02:00:22;-0.50;99.90
10247;DHT22;5168;47.854;7.944;2023-02-01T02:02:51;-0.80;99.90
10247;DHT22;5168;47.854;7.944;2023-02-01T02:05:19;-0.90;99.90
10247;DHT22;5168;47.854;7.944;2023-02-01T02:07:49;-1.30;99.90
10247;DHT22;5168;47.854;7.944;2023-02-01T02:12:44;-0.80;99.90
10247;DHT22;5168;47.854;7.944;2023-02-01T02:15:13;-0.90;99.90
10247;DHT22;5168;47.854;7.944;2023-02-01T02:17:51;-0.90;99.90
10247;DHT22;5168;47.854;7.944;2023-02-01T02:20:48;-0.80;99.90
10247;DHT22;5168;47.854;7.944;2023-02-01T02:28:51;-0.80;99.90
10247;DHT22;5168;47.854;7.944;2023-02-01T02:31:54;-0.70;99.90
10247;DHT22;5168;47.854;7.944;2023-02-01T02:34:44;-0.90;99.90
10247;DHT22;5168;47.854;7.944;2023-02-01T02:42:55;-0.80;99.90
10247;DHT22;5168;47.854;7.944;2023-02-01T02:45:49;-0.70;99.90
10247;DHT22;5168;47.854;7.944;2023-02-01T02:48:51;-0.80;99.90
10247;DHT22;5168;47.854;7.944;2023-02-01T02:51:25;-0.60;99.90
10247;DHT22;5168;47.854;7.944;2023-02-01T02:54:24;-0.80;99.90
10247;DHT22;5168;47.854;7.944;2023-02-01T02:57:11;-0.80;99.90
10247;DHT22;5168;47.854;7.944;2023-02-01T02:59:58;-0.90;99.90
10247;DHT22;5168;47.854;7.944;2023-02-01T03:02:45;-0.70;99.90
10247;DHT22;5168;47.854;7.944;2023-02-01T03:05:39;-0.30;99.90
10247;DHT22;5168;47.854;7.944;2023-02-01T03:08:11;-1.30;99.90
10247;DHT22;5168;47.854;7.944;2023-02-01T03:13:17;-0.90;99.90
10247;DHT22;5168;47.854;7.944;2023-02-01T03:15:54;-0.80;99.90
10247;DHT22;5168;47.854;7.944;2023-02-01T03:18:48;-1.00;99.90
10247;DHT22;5168;47.854;7.944;2023-02-01T03:21:24;-0.70;99.90
10247;DHT22;5168;47.854;7.944;2023-02-01T03:23:52;-0.80;99.90
10247;DHT22;5168;47.854;7.944;2023-02-01T03:26:20;-0.90;99.90
10247;DHT22;5168;47.854;7.944;2023-02-01T03:28:55;-0.90;99.90
10247;DHT22;5168;47.854;7.944;2023-02-01T03:31:23;-0.60;99.90
10247;DHT22;5168;47.854;7.944;2023-02-01T03:33:49;-0.60;99.90
10247;DHT22;5168;47.854;7.944;2023-02-01T03:36:29;-0.90;99.90
10247;DHT22;5168;47.854;7.944;2023-02-01T03:39:15;-0.80;99.90
10247;DHT22;5168;47.854;7.944;2023-02-01T03:49:17;-0.60;99.90
10247;DHT22;5168;47.854;7.944;2023-02-01T03:51:44;-0.20;99.90
10247;DHT22;5168;47.854;7.944;2023-02-01T03:54:13;-0.10;99.90
10247;DHT22;5168;47.854;7.944;2023-02-01T03:56:42;-0.60;99.90
10247;DHT22;5168;47.854;7.944;2023-02-01T03:59:10;-0.50;99.90
10247;DHT22;5168;47.854;7.944;2023-02-01T04:04:02;-0.10;99.90
10247;DHT22;5168;47.854;7.944;2023-02-01T04:16:11;-0.70;99.90
10247;DHT22;5168;47.854;7.944;2023-02-01T04:18:36;-0.50;99.90
10247;DHT22;5168;47.854;7.944;2023-02-01T04:21:03;-0.50;99.90
10247;DHT22;5168;47.854;7.944;2023-02-01T04:23:29;-0.40;99.90
10247;DHT22;5168;47.854;7.944;2023-02-01T04:26:04;-0.30;99.90
10247;DHT22;5168;47.854;7.944;2023-02-01T04:28:30;0.10;99.90
10247;DHT22;5168;47.854;7.944;2023-02-01T04:30:56;-0.10;99.90
10247;DHT22;5168;47.854;7.944;2023-02-01T04:40:40;-0.40;99.90
10247;DHT22;5168;47.854;7.944;2023-02-01T04:43:06;-0.20;99.90
10247;DHT22;5168;47.854;7.944;2023-02-01T04:45:31;-0.40;99.90
10247;DHT22;5168;47.854;7.944;2023-02-01T04:50:23;-0.20;99.90
10247;DHT22;5168;47.854;7.944;2023-02-01T04:52:49;-0.40;99.90
10247;DHT22;5168;47.854;7.944;2023-02-01T04:55:14;-0.30;99.90
10247;DHT22;5168;47.854;7.944;2023-02-01T04:57:40;-0.30;99.90
10247;DHT22;5168;47.854;7.944;2023-02-01T05:00:09;-0.80;99.90
10247;DHT22;5168;47.854;7.944;2023-02-01T05:02:35;-0.30;99.90
10247;DHT22;5168;47.854;7.944;2023-02-01T05:05:01;-0.30;99.90
10247;DHT22;5168;47.854;7.944;2023-02-01T05:07:27;-0.30;99.90
10247;DHT22;5168;47.854;7.944;2023-02-01T05:15:03;0.20;99.90
10247;DHT22;5168;47.854;7.944;2023-02-01T05:24:46;-0.20;99.90
10247;DHT22;5168;47.854;7.944;2023-02-01T05:27:12;-0.40;99.90
10247;DHT22;5168;47.854;7.944;2023-02-01T05:29:37;-0.40;99.90
10247;DHT22;5168;47.854;7.944;2023-02-01T05:41:47;-0.30;99.90
10247;DHT22;5168;47.854;7.944;2023-02-01T05:44:12;-0.30;99.90
10247;DHT22;5168;47.854;7.944;2023-02-01T05:46:38;-0.30;99.90
10247;DHT22;5168;47.854;7.944;2023-02-01T05:49:04;-0.30;99.90
10247;DHT22;5168;47.854;7.944;2023-02-01T05:51:30;-0.50;99.90
10247;DHT22;5168;47.854;7.944;2023-02-01T05:58:48;-0.30;99.90
10247;DHT22;5168;47.854;7.944;2023-02-01T06:03:39;-0.40;99.90
10247;DHT22;5168;47.854;7.944;2023-02-01T06:06:05;0.00;99.90
10247;DHT22;5168;47.854;7.944;2023-02-01T06:08:31;-0.20;99.90
10247;DHT22;5168;47.854;7.944;2023-02-01T06:11:04;-0.10;99.90
10247;DHT22;5168;47.854;7.944;2023-02-01T06:13:30;-0.40;99.90
10247;DHT22;5168;47.854;7.944;2023-02-01T06:15:56;-0.50;99.90
10247;DHT22;5168;47.854;7.944;2023-02-01T06:20:55;-0.40;99.90
10247;DHT22;5168;47.854;7.944;2023-02-01T06:23:22;-0.50;99.90
10247;DHT22;5168;47.854;7.944;2023-02-01T06:25:50;-0.50;99.90
10247;DHT22;5168;47.854;7.944;2023-02-01T06:28:15;-0.60;99.90
10247;DHT22;5168;47.854;7.944;2023-02-01T06:30:41;-0.30;99.90
10247;DHT22;5168;47.854;7.944;2023-02-01T06:33:13;-0.40;99.90
10247;DHT22;5168;47.854;7.944;2023-02-01T06:35:41;-0.40;99.90
10247;DHT22;5168;47.854;7.944;2023-02-01T06:38:07;-0.60;99.90
10247;DHT22;5168;47.854;7.944;2023-02-01T06:52:42;-0.80;99.90
10247;DHT22;5168;47.854;7.944;2023-02-01T07:00:02;-0.50;99.90
10247;DHT22;5168;47.854;7.944;2023-02-01T07:02:28;0.30;99.90
10247;DHT22;5168;47.854;7.944;2023-02-01T07:04:53;-0.50;99.90
10247;DHT22;5168;47.854;7.944;2023-02-01T07:07:19;-0.50;99.90
10247;DHT22;5168;47.854;7.944;2023-02-01T07:17:03;-0.40;99.90
10247;DHT22;5168;47.854;7.944;2023-02-01T07:19:29;-0.80;99.90
10247;DHT22;5168;47.854;7.944;2023-02-01T07:21:54;-0.40;99.90
10247;DHT22;5168;47.854;7.944;2023-02-01T07:24:20;-0.60;99.90
10247;DHT22;5168;47.854;7.944;2023-02-01T07:26:45;-0.40;99.90
10247;DHT22;5168;47.854;7.944;2023-02-01T07:38:58;0.40;99.90
10247;DHT22;5168;47.854;7.944;2023-02-01T07:43:53;-0.20;99.90
10247;DHT22;5168;47.854;7.944;2023-02-01T07:46:20;0.00;99.90
10247;DHT22;5168;47.854;7.944;2023-02-01T07:51:16;0.00;99.90
10247;DHT22;5168;47.854;7.944;2023-02-01T07:53:42;0.10;99.90
10247;DHT22;5168;47.854;7.944;2023-02-01T07:56:13;0.20;99.90
10247;DHT22;5168;47.854;7.944;2023-02-01T07:58:39;-0.10;99.90
10247;DHT22;5168;47.854;7.944;2023-02-01T08:01:05;0.00;99.90
10247;DHT22;5168;47.854;7.944;2023-02-01T08:03:59;-0.10;99.90
10247;DHT22;5168;47.854;7.944;2023-02-01T08:06:25;0.50;99.90
10247;DHT22;5168;47.854;7.944;2023-02-01T08:08:52;0.10;99.90
10247;DHT22;5168;47.854;7.944;2023-02-01T08:11:18;0.10;99.90
10247;DHT22;5168;47.854;7.944;2023-02-01T08:16:12;0.20;99.90
10247;DHT22;5168;47.854;7.944;2023-02-01T08:18:38;0.20;99.90
10247;DHT22;5168;47.854;7.944;2023-02-01T08:21:09;0.00;99.90
10247;DHT22;5168;47.854;7.944;2023-02-01T08:26:09;0.20;99.90
10247;DHT22;5168;47.854;7.944;2023-02-01T08:28:37;0.00;99.90
10247;DHT22;5168;47.854;7.944;2023-02-01T08:31:13;0.20;99.90
10247;DHT22;5168;47.854;7.944;2023-02-01T08:33:43;-0.10;99.90
10247;DHT22;5168;47.854;7.944;2023-02-01T08:36:10;0.10;99.90
10247;DHT22;5168;47.854;7.944;2023-02-01T08:38:37;-0.20;99.90
10247;DHT22;5168;47.854;7.944;2023-02-01T08:41:11;0.20;99.90
10247;DHT22;5168;47.854;7.944;2023-02-01T08:43:37;-0.30;99.90
10247;DHT22;5168;47.854;7.944;2023-02-01T08:46:04;-0.10;99.90
10247;DHT22;5168;47.854;7.944;2023-02-01T08:53:22;0.00;99.90
10247;DHT22;5168;47.854;7.944;2023-02-01T09:00:43;0.20;99.90
10247;DHT22;5168;47.854;7.944;2023-02-01T09:03:11;0.40;99.90
10247;DHT22;5168;47.854;7.944;2023-02-01T09:08:03;0.10;99.90
10247;DHT22;5168;47.854;7.944;2023-02-01T09:12:55;-0.20;99.90
10247;DHT22;5168;47.854;7.944;2023-02-01T09:15:20;-0.20;99.90
10247;DHT22;5168;47.854;7.944;2023-02-01T09:20:12;0.10;99.90
10247;DHT22;5168;47.854;7.944;2023-02-01T09:25:04;-0.10;99.90
10247;DHT22;5168;47.854;7.944;2023-02-01T09:32:22;0.10;99.90
10247;DHT22;5168;47.854;7.944;2023-02-01T09:34:49;0.10;99.90
10247;DHT22;5168;47.854;7.944;2023-02-01T09:37:15;0.40;99.90
10247;DHT22;5168;47.854;7.944;2023-02-01T09:39:41;0.20;99.90
10247;DHT22;5168;47.854;7.944;2023-02-01T09:45:42;0.60;99.90
10247;DHT22;5168;47.854;7.944;2023-02-01T09:48:19;0.00;99.90
10247;DHT22;5168;47.854;7.944;2023-02-01T09:50:55;0.40;99.90
10247;DHT22;5168;47.854;7.944;2023-02-01T09:55:50;0.10;99.90
10247;DHT22;5168;47.854;7.944;2023-02-01T09:58:32;0.10;99.90
10247;DHT22;5168;47.854;7.944;2023-02-01T10:00:59;0.00;99.90
10247;DHT22;5168;47.854;7.944;2023-02-01T10:03:34;0.00;99.90
10247;DHT22;5168;47.854;7.944;2023-02-01T10:15:22;0.30;99.90
10247;DHT22;5168;47.854;7.944;2023-02-01T10:21:19;0.30;99.90
10247;DHT22;5168;47.854;7.944;2023-02-01T10:26:23;0.30;99.90
10247;DHT22;5168;47.854;7.944;2023-02-01T10:28:54;0.50;99.90
10247;DHT22;5168;47.854;7.944;2023-02-01T10:31:25;0.30;99.90
10247;DHT22;5168;47.854;7.944;2023-02-01T10:33:57;0.50;99.90
10247;DHT22;5168;47.854;7.944;2023-02-01T10:36:32;0.30;99.90
10247;DHT22;5168;47.854;7.944;2023-02-01T10:39:00;0.30;99.90
10247;DHT22;5168;47.854;7.944;2023-02-01T10:41:33;0.10;99.90
10247;DHT22;5168;47.854;7.944;2023-02-01T10:44:00;0.30;99.90
10247;DHT22;5168;47.854;7.944;2023-02-01T10:46:29;0.30;99.90
10247;DHT22;5168;47.854;7.944;2023-02-01T10:48:56;1.00;99.90
10247;DHT22;5168;47.854;7.944;2023-02-01T10:51:46;0.30;99.90
10247;DHT22;5168;47.854;7.944;2023-02-01T10:54:33;0.70;99.90
10247;DHT22;5168;47.854;7.944;2023-02-01T10:56:58;0.60;99.90
10247;DHT22;5168;47.854;7.944;2023-02-01T10:59:25;0.60;99.90
10247;DHT22;5168;47.854;7.944;2023-02-01T11:01:59;0.60;99.90
10247;DHT22;5168;47.854;7.944;2023-02-01T11:07:03;0.50;99.90
10247;DHT22;5168;47.854;7.944;2023-02-01T11:09:35;0.40;99.90
10247;DHT22;5168;47.854;7.944;2023-02-01T11:12:04;0.70;99.90
10247;DHT22;5168;47.854;7.944;2023-02-01T11:14:38;0.10;99.90
10247;DHT22;5168;47.854;7.944;2023-02-01T11:17:26;0.80;99.90
10247;DHT22;5168;47.854;7.944;2023-02-01T11:19:58;0.40;99.90
10247;DHT22;5168;47.854;7.944;2023-02-01T11:22:26;0.70;99.90
10247;DHT22;5168;47.854;7.944;2023-02-01T11:24:53;0.80;99.90
10247;DHT22;5168;47.854;7.944;2023-02-01T11:27:21;0.50;99.90
10247;DHT22;5168;47.854;7.944;2023-02-01T11:29:50;0.50;99.90
10247;DHT22;5168;47.854;7.944;2023-02-01T11:32:18;0.30;99.90
10247;DHT22;5168;47.854;7.944;2023-02-01T11:35:05;0.50;99.90
10247;DHT22;5168;47.854;7.944;2023-02-01T11:37:40;0.90;99.90
10247;DHT22;5168;47.854;7.944;2023-02-01T11:43:35;0.60;99.90
10247;DHT22;5168;47.854;7.944;2023-02-01T11:45:53;0.20;99.90
10247;DHT22;5168;47.854;7.944;2023-02-01T11:50:56;0.60;99.90
10247;DHT22;5168;47.854;7.944;2023-02-01T12:01:46;0.50;99.90
10247;DHT22;5168;47.854;7.944;2023-02-01T12:06:54;0.60;99.90
10247;DHT22;5168;47.854;7.944;2023-02-01T12:09:45;0.50;99.90
10247;DHT22;5168;47.854;7.944;2023-02-01T12:12:38;0.90;99.90
10247;DHT22;5168;47.854;7.944;2023-02-01T12:37:15;0.60;99.90
10247;DHT22;5168;47.854;7.944;2023-02-01T12:42:32;0.70;99.90
10247;DHT22;5168;47.854;7.944;2023-02-01T12:45:28;0.70;99.90
10247;DHT22;5168;47.854;7.944;2023-02-01T12:50:55;0.80;99.90
10247;DHT22;5168;47.854;7.944;2023-02-01T12:53:28;0.70;99.90
10247;DHT22;5168;47.854;7.944;2023-02-01T12:56:01;0.70;99.90
10247;DHT22;5168;47.854;7.944;2023-02-01T12:59:08;0.70;99.90
10247;DHT22;5168;47.854;7.944;2023-02-01T13:01:39;0.70;99.90
10247;DHT22;5168;47.854;7.944;2023-02-01T13:04:38;0.40;99.90
10247;DHT22;5168;47.854;7.944;2023-02-01T13:07:33;0.30;99.90
10247;DHT22;5168;47.854;7.944;2023-02-01T13:10:11;0.80;99.90
10247;DHT22;5168;47.854;7.944;2023-02-01T13:12:56;0.70;99.90
10247;DHT22;5168;47.854;7.944;2023-02-01T13:15:29;0.60;99.90
10247;DHT22;5168;47.854;7.944;2023-02-01T13:17:59;0.70;99.90
10247;DHT22;5168;47.854;7.944;2023-02-01T13:20:34;0.80;99.90
10247;DHT22;5168;47.854;7.944;2023-02-01T13:23:07;0.40;99.90
10247;DHT22;5168;47.854;7.944;2023-02-01T13:25:39;0.80;99.90
10247;DHT22;5168;47.854;7.944;2023-02-01T13:28:16;0.70;99.90
10247;DHT22;5168;47.854;7.944;2023-02-01T13:33:55;0.60;99.90
10247;DHT22;5168;47.854;7.944;2023-02-01T13:39:34;0.60;99.90
10247;DHT22;5168;47.854;7.944;2023-02-01T13:42:21;0.60;99.90
10247;DHT22;5168;47.854;7.944;2023-02-01T13:44:57;0.60;99.90
10247;DHT22;5168;47.854;7.944;2023-02-01T13:49:51;0.70;99.90
10247;DHT22;5168;47.854;7.944;2023-02-01T13:55:25;0.10;99.90
10247;DHT22;5168;47.854;7.944;2023-02-01T14:00:35;1.00;99.90
10247;DHT22;5168;47.854;7.944;2023-02-01T14:13:35;0.30;99.90
10247;DHT22;5168;47.854;7.944;2023-02-01T14:18:49;0.10;99.90
10247;DHT22;5168;47.854;7.944;2023-02-01T14:31:54;-0.10;99.90
10247;DHT22;5168;47.854;7.944;2023-02-01T14:34:30;0.40;99.90
10247;DHT22;5168;47.854;7.944;2023-02-01T14:37:00;0.00;99.90
10247;DHT22;5168;47.854;7.944;2023-02-01T14:39:37;0.40;99.90
10247;DHT22;5168;47.854;7.944;2023-02-01T14:47:44;0.00;99.90
10247;DHT22;5168;47.854;7.944;2023-02-01T14:50:22;-0.10;99.90
10247;DHT22;5168;47.854;7.944;2023-02-01T14:55:51;0.20;99.90
10247;DHT22;5168;47.854;7.944;2023-02-01T14:58:47;0.00;99.90
10247;DHT22;5168;47.854;7.944;2023-02-01T15:06:30;0.00;99.90
10247;DHT22;5168;47.854;7.944;2023-02-01T15:14:38;0.00;99.90
10247;DHT22;5168;47.854;7.944;2023-02-01T15:17:24;0.00;99.90
10247;DHT22;5168;47.854;7.944;2023-02-01T15:19:54;-0.20;99.90
10247;DHT22;5168;47.854;7.944;2023-02-01T15:24:55;0.00;99.90
10247;DHT22;5168;47.854;7.944;2023-02-01T15:27:21;-0.10;99.90
10247;DHT22;5168;47.854;7.944;2023-02-01T15:32:34;-0.10;99.90
10247;DHT22;5168;47.854;7.944;2023-02-01T15:35:01;-0.30;99.90
10247;DHT22;5168;47.854;7.944;2023-02-01T15:37:27;0.00;99.90
10247;DHT22;5168;47.854;7.944;2023-02-01T15:42:35;-0.30;99.90
10247;DHT22;5168;47.854;7.944;2023-02-01T15:45:01;0.20;99.90
10247;DHT22;5168;47.854;7.944;2023-02-01T15:47:28;0.00;99.90
10247;DHT22;5168;47.854;7.944;2023-02-01T15:49:58;-0.10;99.90
10247;DHT22;5168;47.854;7.944;2023-02-01T15:52:36;0.60;99.90
10247;DHT22;5168;47.854;7.944;2023-02-01T15:55:05;-0.20;99.90
10247;DHT22;5168;47.854;7.944;2023-02-01T15:57:38;-0.10;99.90
10247;DHT22;5168;47.854;7.944;2023-02-01T16:00:08;-0.10;99.90
10247;DHT22;5168;47.854;7.944;2023-02-01T16:02:52;-0.10;99.90
10247;DHT22;5168;47.854;7.944;2023-02-01T16:05:35;0.00;99.90
10247;DHT22;5168;47.854;7.944;2023-02-01T16:08:20;-0.60;99.90
10247;DHT22;5168;47.854;7.944;2023-02-01T16:10:49;-0.10;99.90
10247;DHT22;5168;47.854;7.944;2023-02-01T16:13:16;-0.40;99.90
10247;DHT22;5168;47.854;7.944;2023-02-01T16:15:43;-0.30;99.90
10247;DHT22;5168;47.854;7.944;2023-02-01T16:18:09;-0.40;99.90
10247;DHT22;5168;47.854;7.944;2023-02-01T16:20:36;0.00;99.90
10247;DHT22;5168;47.854;7.944;2023-02-01T16:23:03;-0.10;99.90
10247;DHT22;5168;47.854;7.944;2023-02-01T16:25:29;-0.20;99.90
10247;DHT22;5168;47.854;7.944;2023-02-01T16:27:55;-0.10;99.90
10247;DHT22;5168;47.854;7.944;2023-02-01T16:30:20;0.10;99.90
10247;DHT22;5168;47.854;7.944;2023-02-01T16:32:59;0.20;99.90
10247;DHT22;5168;47.854;7.944;2023-02-01T16:35:37;0.00;99.90
10247;DHT22;5168;47.854;7.944;2023-02-01T16:38:12;-0.10;99.90
10247;DHT22;5168;47.854;7.944;2023-02-01T16:40:39;0.10;99.90
10247;DHT22;5168;47.854;7.944;2023-02-01T16:43:12;-0.20;99.90
10247;DHT22;5168;47.854;7.944;2023-02-01T16:45:38;-0.20;99.90
10247;DHT22;5168;47.854;7.944;2023-02-01T16:48:05;-0.10;99.90
10247;DHT22;5168;47.854;7.944;2023-02-01T16:50:32;-0.10;99.90
10247;DHT22;5168;47.854;7.944;2023-02-01T16:52:58;-0.50;99.90
10247;DHT22;5168;47.854;7.944;2023-02-01T16:57:51;-0.30;99.90
10247;DHT22;5168;47.854;7.944;2023-02-01T17:02:43;0.00;99.90
10247;DHT22;5168;47.854;7.944;2023-02-01T17:05:10;-0.10;99.90
10247;DHT22;5168;47.854;7.944;2023-02-01T17:07:38;-0.30;99.90
10247;DHT22;5168;47.854;7.944;2023-02-01T17:10:05;0.20;99.90
10247;DHT22;5168;47.854;7.944;2023-02-01T17:12:32;0.20;99.90
10247;DHT22;5168;47.854;7.944;2023-02-01T17:17:27;-0.10;99.90
10247;DHT22;5168;47.854;7.944;2023-02-01T17:22:22;0.00;99.90
10247;DHT22;5168;47.854;7.944;2023-02-01T17:24:48;-0.20;99.90
10247;DHT22;5168;47.854;7.944;2023-02-01T17:27:14;0.10;99.90
10247;DHT22;5168;47.854;7.944;2023-02-01T17:29:40;0.20;99.90
10247;DHT22;5168;47.854;7.944;2023-02-01T17:32:17;0.00;99.90
10247;DHT22;5168;47.854;7.944;2023-02-01T17:34:44;-0.20;99.90
10247;DHT22;5168;47.854;7.944;2023-02-01T17:37:29;0.00;99.90
10247;DHT22;5168;47.854;7.944;2023-02-01T17:42:22;0.00;99.90
10247;DHT22;5168;47.854;7.944;2023-02-01T17:44:49;0.00;99.90
10247;DHT22;5168;47.854;7.944;2023-02-01T17:49:42;-0.10;99.90
10247;DHT22;5168;47.854;7.944;2023-02-01T17:52:15;2.10;99.90
10247;DHT22;5168;47.854;7.944;2023-02-01T17:54:41;0.00;99.90
10247;DHT22;5168;47.854;7.944;2023-02-01T17:57:11;-0.30;99.90
10247;DHT22;5168;47.854;7.944;2023-02-01T17:59:37;-0.40;99.90
10247;DHT22;5168;47.854;7.944;2023-02-01T18:02:02;-0.30;99.90
10247;DHT22;5168;47.854;7.944;2023-02-01T18:06:54;0.00;99.90
10247;DHT22;5168;47.854;7.944;2023-02-01T18:11:45;0.60;99.90
10247;DHT22;5168;47.854;7.944;2023-02-01T18:14:13;-0.30;99.90
10247;DHT22;5168;47.854;7.944;2023-02-01T18:19:06;0.00;99.90
10247;DHT22;5168;47.854;7.944;2023-02-01T18:21:34;0.00;99.90
10247;DHT22;5168;47.854;7.944;2023-02-01T18:24:00;-0.40;99.90
10247;DHT22;5168;47.854;7.944;2023-02-01T18:26:26;0.70;99.90
10247;DHT22;5168;47.854;7.944;2023-02-01T18:28:52;0.40;99.90
10247;DHT22;5168;47.854;7.944;2023-02-01T18:31:22;-0.10;99.90
10247;DHT22;5168;47.854;7.944;2023-02-01T18:33:49;-0.30;99.90
10247;DHT22;5168;47.854;7.944;2023-02-01T18:41:11;0.60;99.90
10247;DHT22;5168;47.854;7.944;2023-02-01T18:43:38;-0.20;99.90
10247;DHT22;5168;47.854;7.944;2023-02-01T18:46:04;0.10;99.90
10247;DHT22;5168;47.854;7.944;2023-02-01T18:48:29;-0.40;99.90
10247;DHT22;5168;47.854;7.944;2023-02-01T18:50:55;-0.40;99.90
10247;DHT22;5168;47.854;7.944;2023-02-01T18:55:54;-0.10;99.90
10247;DHT22;5168;47.854;7.944;2023-02-01T18:58:20;-0.20;99.90
10247;DHT22;5168;47.854;7.944;2023-02-01T19:00:47;0.10;99.90
10247;DHT22;5168;47.854;7.944;2023-02-01T19:03:13;-0.20;99.90
10247;DHT22;5168;47.854;7.944;2023-02-01T19:05:39;-0.30;99.90
10247;DHT22;5168;47.854;7.944;2023-02-01T19:08:06;0.20;99.90
10247;DHT22;5168;47.854;7.944;2023-02-01T19:10:31;0.50;99.90
10247;DHT22;5168;47.854;7.944;2023-02-01T19:12:58;0.70;99.90
10247;DHT22;5168;47.854;7.944;2023-02-01T19:15:24;-0.20;99.90
10247;DHT22;5168;47.854;7.944;2023-02-01T19:17:52;-0.20;99.90
10247;DHT22;5168;47.854;7.944;2023-02-01T19:20:24;0.10;99.90
10247;DHT22;5168;47.854;7.944;2023-02-01T19:22:50;0.00;99.90
10247;DHT22;5168;47.854;7.944;2023-02-01T19:25:22;-0.60;99.90
10247;DHT22;5168;47.854;7.944;2023-02-01T19:32:40;-0.20;99.90
10247;DHT22;5168;47.854;7.944;2023-02-01T19:35:08;-0.20;99.90
10247;DHT22;5168;47.854;7.944;2023-02-01T19:42:26;0.20;99.90
10247;DHT22;5168;47.854;7.944;2023-02-01T19:47:18;0.10;99.90
10247;DHT22;5168;47.854;7.944;2023-02-01T19:52:10;-0.30;99.90
10247;DHT22;5168;47.854;7.944;2023-02-01T19:57:02;-0.20;99.90
10247;DHT22;5168;47.854;7.944;2023-02-01T20:04:20;-0.30;99.90
10247;DHT22;5168;47.854;7.944;2023-02-01T20:06:47;-0.20;99.90
10247;DHT22;5168;47.854;7.944;2023-02-01T20:09:23;-0.30;99.90
10247;DHT22;5168;47.854;7.944;2023-02-01T20:11:50;-0.30;99.90
10247;DHT22;5168;47.854;7.944;2023-02-01T20:14:16;-0.50;99.90
10247;DHT22;5168;47.854;7.944;2023-02-01T20:16:42;-0.30;99.90
10247;DHT22;5168;47.854;7.944;2023-02-01T20:19:09;-0.40;99.90
10247;DHT22;5168;47.854;7.944;2023-02-01T20:21:36;-0.50;99.90
10247;DHT22;5168;47.854;7.944;2023-02-01T20:24:02;-0.20;99.90
10247;DHT22;5168;47.854;7.944;2023-02-01T20:26:28;-0.10;99.90
10247;DHT22;5168;47.854;7.944;2023-02-01T20:28:54;-0.40;99.90
10247;DHT22;5168;47.854;7.944;2023-02-01T20:31:20;-0.50;99.90
10247;DHT22;5168;47.854;7.944;2023-02-01T20:38:40;-0.10;99.90
10247;DHT22;5168;47.854;7.944;2023-02-01T20:41:08;-0.40;99.90
10247;DHT22;5168;47.854;7.944;2023-02-01T20:43:34;-0.20;99.90
10247;DHT22;5168;47.854;7.944;2023-02-01T20:46:00;-0.10;99.90
10247;DHT22;5168;47.854;7.944;2023-02-01T20:50:54;0.10;99.90
10247;DHT22;5168;47.854;7.944;2023-02-01T21:00:38;-0.30;99.90
10247;DHT22;5168;47.854;7.944;2023-02-01T21:03:03;-0.10;99.90
10247;DHT22;5168;47.854;7.944;2023-02-01T21:05:28;-0.20;99.90
10247;DHT22;5168;47.854;7.944;2023-02-01T21:08:09;-0.40;99.90
10247;DHT22;5168;47.854;7.944;2023-02-01T21:10:35;-0.30;99.90
10247;DHT22;5168;47.854;7.944;2023-02-01T21:13:01;-0.30;99.90
10247;DHT22;5168;47.854;7.944;2023-02-01T21:17:53;0.00;99.90
10247;DHT22;5168;47.854;7.944;2023-02-01T21:20:19;-0.40;99.90
10247;DHT22;5168;47.854;7.944;2023-02-01T21:22:44;-0.20;99.90
10247;DHT22;5168;47.854;7.944;2023-02-01T21:27:36;-0.30;99.90
10247;DHT22;5168;47.854;7.944;2023-02-01T21:30:03;0.30;99.90
10247;DHT22;5168;47.854;7.944;2023-02-01T21:34:55;-0.40;99.90
10247;DHT22;5168;47.854;7.944;2023-02-01T21:37:23;-0.20;99.90
10247;DHT22;5168;47.854;7.944;2023-02-01T21:39:50;-0.20;99.90
10247;DHT22;5168;47.854;7.944;2023-02-01T21:44:44;-0.20;99.90
10247;DHT22;5168;47.854;7.944;2023-02-01T21:47:18;-0.30;99.90
10247;DHT22;5168;47.854;7.944;2023-02-01T21:49:47;-0.30;99.90
10247;DHT22;5168;47.854;7.944;2023-02-01T21:52:14;0.10;99.90
10247;DHT22;5168;47.854;7.944;2023-02-01T21:54:40;-0.30;99.90
10247;DHT22;5168;47.854;7.944;2023-02-01T21:57:06;-0.30;99.90
10247;DHT22;5168;47.854;7.944;2023-02-01T21:59:39;-0.10;99.90
10247;DHT22;5168;47.854;7.944;2023-02-01T22:02:06;-0.20;99.90
10247;DHT22;5168;47.854;7.944;2023-02-01T22:04:31;0.00;99.90
10247;DHT22;5168;47.854;7.944;2023-02-01T22:09:24;-0.30;99.90
10247;DHT22;5168;47.854;7.944;2023-02-01T22:11:52;-0.30;99.90
10247;DHT22;5168;47.854;7.944;2023-02-01T22:14:19;-0.30;99.90
10247;DHT22;5168;47.854;7.944;2023-02-01T22:16:45;-0.50;99.90
10247;DHT22;5168;47.854;7.944;2023-02-01T22:19:11;-0.30;99.90
10247;DHT22;5168;47.854;7.944;2023-02-01T22:21:38;-0.40;99.90
10247;DHT22;5168;47.854;7.944;2023-02-01T22:31:24;-0.60;99.90
10247;DHT22;5168;47.854;7.944;2023-02-01T22:33:49;-0.30;99.90
10247;DHT22;5168;47.854;7.944;2023-02-01T22:36:16;-0.50;99.90
10247;DHT22;5168;47.854;7.944;2023-02-01T22:38:42;-0.30;99.90
10247;DHT22;5168;47.854;7.944;2023-02-01T22:41:08;-0.30;99.90
10247;DHT22;5168;47.854;7.944;2023-02-01T22:43:34;-0.10;99.90
10247;DHT22;5168;47.854;7.944;2023-02-01T22:46:01;-0.20;99.90
10247;DHT22;5168;47.854;7.944;2023-02-01T22:48:28;-0.30;99.90
10247;DHT22;5168;47.854;7.944;2023-02-01T22:50:58;-0.40;99.90
10247;DHT22;5168;47.854;7.944;2023-02-01T22:53:23;-0.30;99.90
10247;DHT22;5168;47.854;7.944;2023-02-01T22:58:16;-0.30;99.90